createdAt,value
2017-11-01T00:00:36.057Z,57.90
2017-11-01T00:02:13.491Z,57.89
2017-11-01T00:03:50.839Z,57.89
2017-11-01T00:05:28.179Z,57.89
2017-11-01T00:07:05.112Z,57.89
2017-11-01T00:08:42.734Z,57.89
2017-11-01T00:10:19.119Z,57.88
2017-11-01T00:11:55.558Z,57.90
2017-11-01T00:13:33.264Z,57.90
2017-11-01T00:15:09.657Z,57.91
2017-11-01T00:16:47.191Z,57.92
2017-11-01T00:18:23.701Z,57.92
2017-11-01T00:20:00.421Z,57.92
2017-11-01T00:21:37.744Z,57.92
2017-11-01T00:23:14.873Z,57.93
2017-11-01T00:24:51.250Z,57.92
2017-11-01T00:26:29.191Z,57.94
2017-11-01T00:28:06.000Z,57.91
2017-11-01T00:29:47.963Z,57.92
2017-11-01T00:31:24.515Z,57.92
2017-11-01T00:33:01.377Z,57.91
2017-11-01T00:34:40.057Z,57.89
2017-11-01T00:36:16.752Z,57.89
2017-11-01T00:37:53.134Z,57.92
2017-11-01T00:39:31.811Z,57.92
2017-11-01T00:41:08.575Z,57.93
2017-11-01T00:42:45.201Z,57.95
2017-11-01T00:44:22.328Z,57.93
2017-11-01T00:45:58.986Z,57.96
2017-11-01T00:47:35.903Z,57.97
2017-11-01T00:49:12.410Z,57.95
2017-11-01T00:50:49.924Z,57.97
2017-11-01T00:52:27.603Z,57.98
2017-11-01T00:54:05.324Z,57.99
2017-11-01T00:55:42.210Z,57.99
2017-11-01T00:57:18.932Z,58.00
2017-11-01T00:58:55.913Z,57.99
2017-11-01T01:00:34.578Z,57.98
2017-11-01T01:02:11.057Z,58.00
2017-11-01T01:03:47.598Z,57.97
2017-11-01T01:05:25.827Z,58.00
2017-11-01T01:07:02.211Z,58.00
2017-11-01T01:08:40.045Z,58.01
2017-11-01T01:10:19.286Z,58.00
2017-11-01T01:11:55.944Z,57.96
2017-11-01T01:13:35.477Z,57.99
2017-11-01T01:15:13.025Z,57.98
2017-11-01T01:16:53.643Z,58.00
2017-11-01T01:18:30.736Z,57.99
2017-11-01T01:20:08.693Z,57.99
2017-11-01T01:21:45.191Z,58.01
2017-11-01T01:23:21.949Z,57.99
2017-11-01T01:24:59.637Z,58.01
2017-11-01T01:26:37.545Z,58.00
2017-11-01T01:28:14.240Z,58.00
2017-11-01T01:29:51.717Z,58.01
2017-11-01T01:31:29.168Z,58.00
2017-11-01T01:33:06.138Z,58.02
2017-11-01T01:34:42.784Z,58.03
2017-11-01T01:36:19.540Z,58.01
2017-11-01T01:37:56.450Z,58.02
2017-11-01T01:39:32.895Z,58.04
2017-11-01T01:41:09.862Z,58.05
2017-11-01T01:42:46.518Z,58.06
2017-11-01T01:44:23.813Z,58.06
2017-11-01T01:46:00.400Z,58.07
2017-11-01T01:47:37.197Z,58.07
2017-11-01T01:49:17.021Z,58.04
2017-11-01T01:50:54.465Z,58.06
2017-11-01T01:52:31.698Z,58.04
2017-11-01T01:54:08.099Z,58.04
2017-11-01T01:55:44.765Z,58.01
2017-11-01T01:57:21.225Z,58.01
2017-11-01T01:58:59.482Z,58.02
2017-11-01T02:00:38.228Z,58.03
2017-11-01T02:02:15.188Z,58.05
2017-11-01T02:03:52.690Z,58.03
2017-11-01T02:05:30.356Z,58.03
2017-11-01T02:07:07.585Z,58.04
2017-11-01T02:08:44.586Z,58.00
2017-11-01T02:10:23.653Z,58.02
2017-11-01T02:12:00.100Z,58.04
2017-11-01T02:13:37.164Z,58.05
2017-11-01T02:15:17.902Z,58.08
2017-11-01T02:16:54.711Z,58.12
2017-11-01T02:18:31.300Z,58.08
2017-11-01T02:20:07.796Z,58.07
2017-11-01T02:21:44.868Z,58.07
2017-11-01T02:23:21.714Z,58.08
2017-11-01T02:24:59.152Z,58.09
2017-11-01T02:26:35.937Z,58.10
2017-11-01T02:28:13.884Z,58.12
2017-11-01T02:29:51.441Z,58.13
2017-11-01T02:31:29.512Z,58.13
2017-11-01T02:33:06.418Z,58.14
2017-11-01T02:34:43.223Z,58.15
2017-11-01T02:36:19.748Z,58.16
2017-11-01T02:37:56.171Z,58.17
2017-11-01T02:39:32.606Z,58.18
2017-11-01T02:41:10.464Z,58.19
2017-11-01T02:42:46.992Z,58.20
2017-11-01T02:44:23.793Z,58.21
2017-11-01T02:46:00.881Z,58.21
2017-11-01T02:47:38.660Z,58.21
2017-11-01T02:49:15.984Z,58.21
2017-11-01T02:51:07.550Z,58.22
2017-11-01T02:52:44.532Z,58.21
2017-11-01T02:54:21.990Z,58.21
2017-11-01T02:55:59.221Z,58.21
2017-11-01T02:57:36.696Z,58.20
2017-11-01T02:59:17.299Z,58.19
2017-11-01T03:00:58.348Z,58.21
2017-11-01T03:02:35.746Z,58.21
2017-11-01T03:04:16.503Z,58.22
2017-11-01T03:05:53.119Z,58.24
2017-11-01T03:07:30.982Z,58.25
2017-11-01T03:09:09.299Z,58.27
2017-11-01T03:10:48.721Z,58.25
2017-11-01T03:12:25.178Z,58.28
2017-11-01T03:14:02.083Z,58.26
2017-11-01T03:15:39.700Z,58.24
2017-11-01T03:17:17.362Z,58.26
2017-11-01T03:18:55.572Z,58.26
2017-11-01T03:20:33.164Z,58.27
2017-11-01T03:22:10.555Z,58.28
2017-11-01T03:23:48.085Z,58.30
2017-11-01T03:25:25.599Z,58.31
2017-11-01T03:27:02.216Z,58.32
2017-11-01T03:28:40.020Z,58.31
2017-11-01T03:30:20.669Z,58.33
2017-11-01T03:31:57.637Z,58.32
2017-11-01T03:33:34.721Z,58.32
2017-11-01T03:35:11.300Z,58.35
2017-11-01T03:36:47.799Z,58.33
2017-11-01T03:38:25.095Z,58.31
2017-11-01T03:40:02.163Z,58.33
2017-11-01T03:41:39.544Z,58.31
2017-11-01T03:43:16.229Z,58.33
2017-11-01T03:44:53.060Z,58.34
2017-11-01T03:46:29.881Z,58.34
2017-11-01T03:48:07.659Z,58.34
2017-11-01T03:49:44.259Z,58.36
2017-11-01T03:51:20.956Z,58.36
2017-11-01T03:52:59.842Z,58.37
2017-11-01T03:54:36.862Z,58.36
2017-11-01T03:56:15.266Z,58.35
2017-11-01T03:57:55.385Z,58.36
2017-11-01T03:59:33.547Z,58.37
2017-11-01T04:01:10.387Z,58.39
2017-11-01T04:02:47.561Z,58.40
2017-11-01T04:04:24.727Z,58.36
2017-11-01T04:06:01.240Z,58.34
2017-11-01T04:07:39.998Z,58.40
2017-11-01T04:09:17.048Z,58.36
2017-11-01T04:10:54.918Z,58.34
2017-11-01T04:12:33.101Z,58.36
2017-11-01T04:14:09.935Z,58.36
2017-11-01T04:15:46.995Z,58.35
2017-11-01T04:19:04.458Z,58.33
2017-11-01T04:20:41.112Z,58.32
2017-11-01T04:22:17.717Z,58.34
2017-11-01T04:23:54.526Z,58.34
2017-11-01T04:25:31.559Z,58.36
2017-11-01T04:27:08.156Z,58.31
2017-11-01T04:28:45.032Z,58.29
2017-11-01T04:30:22.311Z,58.26
2017-11-01T04:32:03.251Z,58.26
2017-11-01T04:33:42.908Z,58.26
2017-11-01T04:35:19.340Z,58.28
2017-11-01T04:36:57.144Z,58.31
2017-11-01T04:38:34.330Z,58.32
2017-11-01T04:40:10.911Z,58.34
2017-11-01T04:41:47.564Z,58.35
2017-11-01T04:43:24.906Z,58.34
2017-11-01T04:45:01.786Z,58.35
2017-11-01T04:46:39.316Z,58.34
2017-11-01T04:48:20.146Z,58.35
2017-11-01T04:49:58.043Z,58.37
2017-11-01T04:51:36.842Z,58.34
2017-11-01T04:53:20.199Z,58.34
2017-11-01T04:54:57.207Z,58.33
2017-11-01T04:56:41.831Z,58.34
2017-11-01T04:58:19.371Z,58.33
2017-11-01T04:59:55.777Z,58.35
2017-11-01T05:01:32.476Z,58.31
2017-11-01T05:03:13.855Z,58.27
2017-11-01T05:04:53.100Z,58.31
2017-11-01T05:06:30.203Z,58.34
2017-11-01T05:08:19.853Z,58.32
2017-11-01T05:09:59.540Z,58.30
2017-11-01T05:11:41.167Z,58.32
2017-11-01T05:13:21.509Z,58.34
2017-11-01T05:14:59.064Z,58.34
2017-11-01T05:16:36.100Z,58.34
2017-11-01T05:18:13.052Z,58.33
2017-11-01T05:19:49.571Z,58.35
2017-11-01T05:21:27.063Z,58.35
2017-11-01T05:23:04.029Z,58.37
2017-11-01T05:24:40.635Z,58.35
2017-11-01T05:26:18.260Z,58.37
2017-11-01T05:27:59.565Z,58.38
2017-11-01T05:29:36.275Z,58.39
2017-11-01T05:31:13.027Z,58.37
2017-11-01T05:32:49.895Z,58.33
2017-11-01T05:34:27.629Z,58.32
2017-11-01T05:36:04.885Z,58.32
2017-11-01T05:37:41.439Z,58.35
2017-11-01T05:39:17.911Z,58.37
2017-11-01T05:40:56.637Z,58.38
2017-11-01T05:42:33.686Z,58.40
2017-11-01T05:44:14.953Z,58.41
2017-11-01T05:45:51.811Z,58.42
2017-11-01T05:47:28.660Z,58.45
2017-11-01T05:49:05.383Z,58.45
2017-11-01T05:50:42.484Z,58.46
2017-11-01T05:52:19.028Z,58.47
2017-11-01T05:53:56.340Z,58.40
2017-11-01T05:55:32.815Z,58.41
2017-11-01T05:57:10.413Z,58.43
2017-11-01T05:58:46.820Z,58.43
2017-11-01T06:00:25.735Z,58.45
2017-11-01T06:02:02.349Z,58.41
2017-11-01T06:03:39.662Z,58.41
2017-11-01T06:05:16.692Z,58.40
2017-11-01T06:06:53.771Z,58.41
2017-11-01T06:08:30.227Z,58.40
2017-11-01T06:10:06.781Z,58.45
2017-11-01T06:11:43.295Z,58.45
2017-11-01T06:13:21.036Z,58.46
2017-11-01T06:14:57.579Z,58.49
2017-11-01T06:16:34.179Z,58.47
2017-11-01T06:18:10.642Z,58.45
2017-11-01T06:19:47.557Z,58.46
2017-11-01T06:21:24.692Z,58.48
2017-11-01T06:23:01.497Z,58.51
2017-11-01T06:24:38.168Z,58.53
2017-11-01T06:26:15.050Z,58.55
2017-11-01T06:27:51.988Z,58.56
2017-11-01T06:29:28.584Z,58.57
2017-11-01T06:31:05.425Z,58.54
2017-11-01T06:32:43.285Z,58.55
2017-11-01T06:34:20.684Z,58.57
2017-11-01T06:35:57.503Z,58.59
2017-11-01T06:37:34.126Z,58.60
2017-11-01T06:39:11.987Z,58.59
2017-11-01T06:40:48.805Z,58.60
2017-11-01T06:42:26.211Z,58.61
2017-11-01T06:44:03.439Z,58.62
2017-11-01T06:45:40.624Z,58.65
2017-11-01T06:47:17.237Z,58.66
2017-11-01T06:48:54.545Z,58.67
2017-11-01T06:50:31.490Z,58.64
2017-11-01T06:52:08.790Z,58.62
2017-11-01T06:53:46.231Z,58.64
2017-11-01T06:55:22.744Z,58.66
2017-11-01T06:56:59.387Z,58.68
2017-11-01T06:58:38.166Z,58.68
2017-11-01T07:00:17.202Z,58.70
2017-11-01T07:01:53.910Z,58.70
2017-11-01T07:03:30.820Z,58.72
2017-11-01T07:05:16.008Z,58.71
2017-11-01T07:06:53.124Z,58.71
2017-11-01T07:08:31.380Z,58.69
2017-11-01T07:10:08.856Z,58.71
2017-11-01T07:11:55.487Z,58.74
2017-11-01T07:13:33.233Z,58.73
2017-11-01T07:15:09.614Z,58.74
2017-11-01T07:16:46.409Z,58.75
2017-11-01T07:18:23.389Z,58.77
2017-11-01T07:19:59.960Z,58.78
2017-11-01T07:21:36.510Z,58.77
2017-11-01T07:23:13.646Z,58.78
2017-11-01T07:24:50.543Z,58.77
2017-11-01T07:26:28.026Z,58.76
2017-11-01T07:28:04.636Z,58.77
2017-11-01T07:29:41.480Z,58.77
2017-11-01T07:31:19.743Z,58.78
2017-11-01T07:32:56.728Z,58.79
2017-11-01T07:34:33.702Z,58.78
2017-11-01T07:36:10.220Z,58.80
2017-11-01T07:37:47.162Z,58.81
2017-11-01T07:39:24.006Z,58.82
2017-11-01T07:41:00.464Z,58.83
2017-11-01T07:42:36.992Z,58.83
2017-11-01T07:44:16.554Z,58.84
2017-11-01T07:45:53.145Z,58.85
2017-11-01T07:47:29.525Z,58.88
2017-11-01T07:49:05.872Z,58.87
2017-11-01T07:50:42.657Z,58.87
2017-11-01T07:52:19.116Z,58.89
2017-11-01T07:53:55.977Z,58.88
2017-11-01T07:55:33.612Z,58.89
2017-11-01T07:57:10.658Z,58.90
2017-11-01T07:58:48.029Z,58.91
2017-11-01T08:00:27.486Z,58.90
2017-11-01T08:02:03.941Z,58.86
2017-11-01T08:03:43.210Z,58.86
2017-11-01T08:05:20.068Z,58.87
2017-11-01T08:06:57.444Z,58.88
2017-11-01T08:08:34.773Z,58.88
2017-11-01T08:10:11.577Z,58.89
2017-11-01T08:11:48.042Z,58.89
2017-11-01T08:13:24.414Z,58.90
2017-11-01T08:15:01.133Z,58.87
2017-11-01T08:16:38.154Z,58.88
2017-11-01T08:18:14.583Z,58.89
2017-11-01T08:19:50.945Z,58.88
2017-11-01T08:21:27.331Z,58.87
2017-11-01T08:23:03.989Z,58.87
2017-11-01T08:24:41.482Z,58.85
2017-11-01T08:26:18.023Z,58.85
2017-11-01T08:27:54.743Z,58.84
2017-11-01T08:29:32.004Z,58.84
2017-11-01T08:31:08.762Z,58.84
2017-11-01T08:32:45.381Z,58.85
2017-11-01T08:34:21.874Z,58.84
2017-11-01T08:35:58.650Z,58.83
2017-11-01T08:37:35.428Z,58.85
2017-11-01T08:39:11.836Z,58.87
2017-11-01T08:40:49.178Z,58.87
2017-11-01T08:42:26.881Z,58.87
2017-11-01T08:44:03.242Z,58.86
2017-11-01T08:45:40.679Z,58.86
2017-11-01T08:47:20.605Z,58.88
2017-11-01T08:48:58.637Z,58.88
2017-11-01T08:50:36.308Z,58.86
2017-11-01T08:52:18.042Z,58.87
2017-11-01T08:53:55.627Z,58.88
2017-11-01T08:55:32.302Z,58.89
2017-11-01T08:57:09.004Z,58.90
2017-11-01T08:58:46.211Z,58.91
2017-11-01T09:00:23.059Z,58.91
2017-11-01T09:02:03.983Z,58.93
2017-11-01T09:03:41.280Z,58.92
2017-11-01T09:05:17.781Z,58.94
2017-11-01T09:06:54.299Z,58.93
2017-11-01T09:08:34.981Z,58.94
2017-11-01T09:10:12.176Z,58.93
2017-11-01T09:11:48.945Z,58.92
2017-11-01T09:13:25.356Z,58.92
2017-11-01T09:15:01.749Z,58.93
2017-11-01T09:16:39.330Z,58.93
2017-11-01T09:18:15.885Z,58.95
2017-11-01T09:19:52.349Z,58.97
2017-11-01T09:21:30.752Z,58.95
2017-11-01T09:23:07.472Z,58.97
2017-11-01T09:24:44.554Z,58.96
2017-11-01T09:26:21.041Z,58.95
2017-11-01T09:27:58.094Z,58.94
2017-11-01T09:29:35.566Z,58.93
2017-11-01T09:31:12.990Z,58.92
2017-11-01T09:32:50.339Z,58.92
2017-11-01T09:34:27.255Z,58.94
2017-11-01T09:36:03.717Z,58.93
2017-11-01T09:37:40.163Z,58.92
2017-11-01T09:39:20.662Z,58.94
2017-11-01T09:40:57.369Z,58.93
2017-11-01T09:42:34.980Z,58.93
2017-11-01T09:44:11.730Z,58.92
2017-11-01T09:45:50.129Z,58.92
2017-11-01T09:47:26.918Z,58.92
2017-11-01T09:49:03.770Z,58.93
2017-11-01T09:50:41.042Z,58.92
2017-11-01T09:52:17.464Z,58.93
2017-11-01T09:53:54.776Z,58.95
2017-11-01T09:55:31.227Z,58.96
2017-11-01T09:57:07.754Z,58.96
2017-11-01T09:58:45.593Z,58.96
2017-11-01T10:00:22.680Z,58.98
2017-11-01T10:02:01.879Z,58.98
2017-11-01T10:03:40.569Z,58.97
2017-11-01T10:05:18.294Z,58.98
2017-11-01T10:06:55.178Z,59.00
2017-11-01T10:08:33.442Z,58.99
2017-11-01T10:10:09.840Z,58.97
2017-11-01T10:11:46.295Z,58.98
2017-11-01T10:13:23.996Z,58.99
2017-11-01T10:15:01.239Z,58.99
2017-11-01T10:16:37.922Z,59.00
2017-11-01T10:18:15.108Z,58.99
2017-11-01T10:19:52.357Z,58.99
2017-11-01T10:21:29.528Z,58.98
2017-11-01T10:23:05.980Z,58.97
2017-11-01T10:24:42.898Z,58.98
2017-11-01T10:26:20.588Z,58.99
2017-11-01T10:27:57.004Z,59.00
2017-11-01T10:29:34.213Z,58.98
2017-11-01T10:31:10.862Z,58.99
2017-11-01T10:32:47.898Z,58.97
2017-11-01T10:34:24.255Z,58.98
2017-11-01T10:36:00.741Z,58.96
2017-11-01T10:37:37.559Z,58.95
2017-11-01T10:39:14.382Z,58.95
2017-11-01T10:40:51.735Z,58.92
2017-11-01T10:42:28.384Z,58.93
2017-11-01T10:44:05.361Z,58.95
2017-11-01T10:45:43.032Z,58.98
2017-11-01T10:47:19.964Z,58.97
2017-11-01T10:48:57.402Z,58.98
2017-11-01T10:50:34.678Z,59.00
2017-11-01T10:52:13.009Z,59.01
2017-11-01T10:53:50.169Z,59.01
2017-11-01T10:55:26.812Z,59.01
2017-11-01T10:57:04.031Z,59.02
2017-11-01T10:58:42.236Z,59.02
2017-11-01T11:00:22.349Z,59.01
2017-11-01T11:02:01.149Z,59.02
2017-11-01T11:03:37.961Z,59.01
2017-11-01T11:05:14.793Z,59.01
2017-11-01T11:06:52.158Z,59.01
2017-11-01T11:08:29.500Z,59.03
2017-11-01T11:10:06.493Z,59.04
2017-11-01T11:11:43.754Z,59.03
2017-11-01T11:13:20.427Z,59.03
2017-11-01T11:14:57.727Z,59.04
2017-11-01T11:16:35.266Z,59.04
2017-11-01T11:18:13.079Z,59.04
2017-11-01T11:19:49.647Z,59.03
2017-11-01T11:21:28.043Z,59.05
2017-11-01T11:23:04.488Z,59.06
2017-11-01T11:24:44.459Z,59.08
2017-11-01T11:26:21.018Z,59.07
2017-11-01T11:27:57.783Z,59.09
2017-11-01T11:29:34.709Z,59.10
2017-11-01T11:31:12.160Z,59.13
2017-11-01T11:32:49.604Z,59.12
2017-11-01T11:34:26.590Z,59.14
2017-11-01T11:36:03.081Z,59.13
2017-11-01T11:37:39.978Z,59.13
2017-11-01T11:39:17.182Z,59.14
2017-11-01T11:40:53.798Z,59.12
2017-11-01T11:42:30.444Z,59.13
2017-11-01T11:44:07.615Z,59.13
2017-11-01T11:45:44.229Z,59.15
2017-11-01T11:47:20.732Z,59.16
2017-11-01T11:48:58.006Z,59.16
2017-11-01T11:50:37.205Z,59.17
2017-11-01T11:52:13.752Z,59.16
2017-11-01T11:53:51.847Z,59.15
2017-11-01T11:55:29.885Z,59.14
2017-11-01T11:57:07.590Z,59.14
2017-11-01T11:58:44.284Z,59.16
2017-11-01T12:00:25.256Z,59.15
2017-11-01T12:02:02.772Z,59.16
2017-11-01T12:03:40.208Z,59.17
2017-11-01T12:05:16.784Z,59.19
2017-11-01T12:06:53.967Z,59.16
2017-11-01T12:08:30.899Z,59.15
2017-11-01T12:10:08.753Z,59.16
2017-11-01T12:11:45.314Z,59.15
2017-11-01T12:13:22.050Z,59.17
2017-11-01T12:14:59.978Z,59.18
2017-11-01T12:16:37.331Z,59.14
2017-11-01T12:18:14.706Z,59.13
2017-11-01T12:19:51.978Z,59.15
2017-11-01T12:21:29.887Z,59.15
2017-11-01T12:23:07.136Z,59.16
2017-11-01T12:24:44.352Z,59.13
2017-11-01T12:26:21.310Z,59.14
2017-11-01T12:27:58.882Z,59.11
2017-11-01T12:29:35.916Z,59.09
2017-11-01T12:31:14.679Z,59.08
2017-11-01T12:32:52.056Z,59.08
2017-11-01T12:34:30.952Z,59.09
2017-11-01T12:36:08.970Z,59.09
2017-11-01T12:37:46.403Z,59.09
2017-11-01T12:39:24.065Z,59.08
2017-11-01T12:41:01.362Z,59.07
2017-11-01T12:42:38.215Z,59.06
2017-11-01T12:44:15.500Z,59.05
2017-11-01T12:45:53.541Z,59.04
2017-11-01T12:47:30.753Z,59.04
2017-11-01T12:49:07.955Z,59.05
2017-11-01T12:50:44.677Z,59.02
2017-11-01T12:52:21.277Z,59.03
2017-11-01T12:53:57.864Z,59.00
2017-11-01T12:55:34.648Z,59.00
2017-11-01T12:57:12.213Z,58.96
2017-11-01T12:58:50.084Z,58.92
2017-11-01T13:00:34.760Z,58.89
2017-11-01T13:02:12.545Z,58.87
2017-11-01T13:03:50.904Z,58.88
2017-11-01T13:05:27.571Z,58.88
2017-11-01T13:07:04.593Z,58.89
2017-11-01T13:08:41.581Z,58.89
2017-11-01T13:10:18.650Z,58.89
2017-11-01T13:11:55.213Z,58.89
2017-11-01T13:13:31.634Z,58.88
2017-11-01T13:15:08.448Z,58.87
2017-11-01T13:16:45.457Z,58.85
2017-11-01T13:18:22.111Z,58.87
2017-11-01T13:19:58.820Z,58.82
2017-11-01T13:21:35.720Z,58.80
2017-11-01T13:23:12.420Z,58.80
2017-11-01T13:24:49.418Z,58.79
2017-11-01T13:26:26.957Z,58.79
2017-11-01T13:28:04.449Z,58.80
2017-11-01T13:29:42.385Z,58.76
2017-11-01T13:31:20.468Z,58.75
2017-11-01T13:32:57.330Z,58.76
2017-11-01T13:34:34.321Z,58.77
2017-11-01T13:36:10.801Z,58.75
2017-11-01T13:37:48.029Z,58.73
2017-11-01T13:39:25.490Z,58.74
2017-11-01T13:41:02.723Z,58.70
2017-11-01T13:42:39.699Z,58.68
2017-11-01T13:44:16.483Z,58.66
2017-11-01T13:45:53.183Z,58.65
2017-11-01T13:47:32.066Z,58.65
2017-11-01T13:49:09.408Z,58.66
2017-11-01T13:50:46.133Z,58.63
2017-11-01T13:52:23.440Z,58.64
2017-11-01T13:54:00.867Z,58.62
2017-11-01T13:55:37.397Z,58.61
2017-11-01T13:57:17.640Z,58.60
2017-11-01T13:58:55.573Z,58.61
2017-11-01T14:00:32.510Z,58.59
2017-11-01T14:02:09.984Z,58.58
2017-11-01T14:03:46.349Z,58.57
2017-11-01T14:05:23.022Z,58.56
2017-11-01T14:06:59.990Z,58.54
2017-11-01T14:08:36.579Z,58.55
2017-11-01T14:10:13.917Z,58.55
2017-11-01T14:11:50.562Z,58.54
2017-11-01T14:13:27.764Z,58.50
2017-11-01T14:15:04.342Z,58.51
2017-11-01T14:16:41.835Z,58.51
2017-11-01T14:18:19.169Z,58.48
2017-11-01T14:19:56.795Z,58.47
2017-11-01T14:21:34.257Z,58.47
2017-11-01T14:23:11.490Z,58.46
2017-11-01T14:24:48.785Z,58.44
2017-11-01T14:26:26.873Z,58.40
2017-11-01T14:28:04.282Z,58.37
2017-11-01T14:29:41.897Z,58.38
2017-11-01T14:31:19.825Z,58.34
2017-11-01T14:32:56.319Z,58.34
2017-11-01T14:34:34.960Z,58.32
2017-11-01T14:36:11.615Z,58.32
2017-11-01T14:37:48.016Z,58.30
2017-11-01T14:39:25.932Z,58.27
2017-11-01T14:41:02.524Z,58.22
2017-11-01T14:42:40.067Z,58.19
2017-11-01T14:44:17.438Z,58.17
2017-11-01T14:45:54.146Z,58.16
2017-11-01T14:47:30.682Z,58.13
2017-11-01T14:49:08.528Z,58.13
2017-11-01T14:50:45.102Z,58.09
2017-11-01T14:52:29.190Z,58.09
2017-11-01T14:54:05.805Z,58.08
2017-11-01T14:55:43.107Z,58.07
2017-11-01T14:57:20.016Z,58.04
2017-11-01T14:58:57.108Z,58.03
2017-11-01T15:00:34.986Z,58.01
2017-11-01T15:02:12.128Z,58.03
2017-11-01T15:03:48.597Z,58.00
2017-11-01T15:05:25.355Z,58.02
2017-11-01T15:07:02.201Z,57.99
2017-11-01T15:08:38.679Z,57.98
2017-11-01T15:10:15.197Z,57.96
2017-11-01T15:11:53.092Z,57.94
2017-11-01T15:13:30.357Z,57.90
2017-11-01T15:15:07.608Z,57.86
2017-11-01T15:16:44.093Z,57.84
2017-11-01T15:18:28.315Z,57.81
2017-11-01T15:20:05.328Z,57.79
2017-11-01T15:21:42.025Z,57.79
2017-11-01T15:23:19.820Z,57.78
2017-11-01T15:24:56.768Z,57.77
2017-11-01T15:26:33.497Z,57.71
2017-11-01T15:28:10.232Z,57.70
2017-11-01T15:29:47.175Z,57.66
2017-11-01T15:31:24.799Z,57.64
2017-11-01T15:33:01.383Z,57.62
2017-11-01T15:34:38.745Z,57.61
2017-11-01T15:36:16.120Z,57.60
2017-11-01T15:37:53.324Z,57.58
2017-11-01T15:39:30.089Z,57.58
2017-11-01T15:41:07.290Z,57.55
2017-11-01T15:42:43.944Z,57.54
2017-11-01T15:44:20.958Z,57.48
2017-11-01T15:45:57.508Z,57.44
2017-11-01T15:47:35.511Z,57.43
2017-11-01T15:50:01.561Z,57.41
2017-11-01T15:51:55.667Z,57.39
2017-11-01T15:53:37.783Z,57.37
2017-11-01T15:55:21.978Z,57.34
2017-11-01T15:57:06.279Z,57.32
2017-11-01T15:58:45.905Z,57.30
2017-11-01T16:00:30.980Z,57.27
2017-11-01T16:02:13.538Z,57.25
2017-11-01T16:04:00.565Z,57.24
2017-11-01T16:05:44.733Z,57.21
2017-11-01T16:07:32.519Z,57.20
2017-11-01T16:09:16.510Z,57.16
2017-11-01T16:10:55.725Z,57.11
2017-11-01T16:12:38.500Z,57.08
2017-11-01T16:14:24.020Z,57.05
2017-11-01T16:16:07.904Z,57.02
2017-11-01T16:17:51.328Z,57.01
2017-11-01T16:19:37.682Z,56.98
2017-11-01T16:21:31.231Z,56.95
2017-11-01T16:23:11.231Z,56.93
2017-11-01T16:24:53.535Z,56.91
2017-11-01T16:26:34.036Z,56.91
2017-11-01T16:28:14.017Z,56.88
2017-11-01T16:29:52.910Z,56.87
2017-11-01T16:31:34.623Z,56.83
2017-11-01T16:33:13.003Z,56.78
2017-11-01T16:34:52.297Z,56.76
2017-11-01T16:36:34.001Z,56.73
2017-11-01T16:38:14.394Z,56.70
2017-11-01T16:39:53.702Z,56.68
2017-11-01T16:41:34.492Z,56.65
2017-11-01T16:43:14.301Z,56.64
2017-11-01T16:44:58.389Z,56.63
2017-11-01T16:46:41.085Z,56.62
2017-11-01T16:48:30.792Z,56.60
2017-11-01T16:50:09.990Z,56.58
2017-11-01T16:51:49.394Z,56.56
2017-11-01T16:53:28.387Z,56.55
2017-11-01T16:55:08.106Z,56.55
2017-11-01T16:56:47.689Z,56.55
2017-11-01T16:58:26.393Z,56.52
2017-11-01T17:00:07.790Z,56.49
2017-11-01T17:01:46.802Z,56.44
2017-11-01T17:03:29.999Z,56.39
2017-11-01T17:05:11.794Z,56.35
2017-11-01T17:06:54.104Z,56.31
2017-11-01T17:08:35.094Z,56.30
2017-11-01T17:10:16.805Z,56.29
2017-11-01T17:11:57.808Z,56.29
2017-11-01T17:13:49.814Z,56.29
2017-11-01T17:15:35.996Z,56.29
2017-11-01T17:17:17.606Z,56.29
2017-11-01T17:18:57.310Z,56.29
2017-11-01T17:20:38.592Z,56.28
2017-11-01T17:22:19.308Z,56.23
2017-11-01T17:23:59.901Z,56.26
2017-11-01T17:25:39.624Z,56.26
2017-11-01T17:27:22.428Z,56.25
2017-11-01T17:29:01.010Z,56.22
2017-11-01T17:30:41.007Z,56.21
2017-11-01T17:32:22.709Z,56.21
2017-11-01T17:34:10.602Z,56.21
2017-11-01T17:35:51.245Z,56.20
2017-11-01T17:37:34.206Z,56.18
2017-11-01T17:39:16.096Z,56.15
2017-11-01T17:40:56.518Z,56.11
2017-11-01T17:42:36.912Z,56.09
2017-11-01T17:44:25.722Z,56.09
2017-11-01T17:46:12.004Z,56.08
2017-11-01T17:47:53.910Z,56.08
2017-11-01T17:49:34.215Z,56.07
2017-11-01T17:51:15.698Z,56.06
2017-11-01T17:52:55.512Z,56.05
2017-11-01T17:54:37.219Z,56.05
2017-11-01T17:56:19.609Z,56.02
2017-11-01T17:58:01.917Z,56.01
2017-11-01T17:59:41.944Z,56.01
2017-11-01T18:01:22.123Z,56.01
2017-11-01T18:03:01.877Z,56.01
2017-11-01T18:04:43.310Z,56.00
2017-11-01T18:06:23.623Z,56.02
2017-11-01T18:08:03.026Z,56.01
2017-11-01T18:09:44.415Z,55.98
2017-11-01T18:11:26.412Z,55.93
2017-11-01T18:13:06.439Z,55.89
2017-11-01T18:14:44.815Z,55.84
2017-11-01T18:16:25.129Z,55.82
2017-11-01T18:18:05.243Z,55.82
2017-11-01T18:19:51.221Z,55.83
2017-11-01T18:21:32.726Z,55.83
2017-11-01T18:23:11.523Z,55.85
2017-11-01T18:24:51.926Z,55.86
2017-11-01T18:26:32.433Z,55.86
2017-11-01T18:28:11.314Z,55.87
2017-11-01T18:29:51.957Z,55.87
2017-11-01T18:31:32.652Z,55.88
2017-11-01T18:33:23.931Z,55.89
2017-11-01T18:35:05.029Z,55.89
2017-11-01T18:36:43.749Z,55.88
2017-11-01T18:38:23.461Z,55.89
2017-11-01T18:40:03.337Z,55.86
2017-11-01T18:41:43.953Z,55.84
2017-11-01T18:43:27.131Z,55.84
2017-11-01T18:45:08.643Z,55.84
2017-11-01T18:46:52.348Z,55.83
2017-11-01T18:48:37.513Z,55.79
2017-11-01T18:50:20.735Z,55.76
2017-11-01T18:52:02.745Z,55.75
2017-11-01T18:53:45.453Z,55.76
2017-11-01T18:55:27.142Z,55.78
2017-11-01T18:57:07.346Z,55.80
2017-11-01T18:58:46.542Z,55.83
2017-11-01T19:00:29.542Z,55.83
2017-11-01T19:02:08.740Z,55.83
2017-11-01T19:03:50.542Z,55.85
2017-11-01T19:05:32.652Z,55.85
2017-11-01T19:07:11.442Z,55.86
2017-11-01T19:08:50.756Z,55.86
2017-11-01T19:10:31.744Z,55.87
2017-11-01T19:12:11.759Z,55.86
2017-11-01T19:13:53.658Z,55.85
2017-11-01T19:15:43.358Z,55.85
2017-11-01T19:17:26.348Z,55.85
2017-11-01T19:19:06.848Z,55.86
2017-11-01T19:20:47.827Z,55.86
2017-11-01T19:22:31.207Z,55.87
2017-11-01T19:24:11.587Z,55.87
2017-11-01T19:25:52.185Z,55.87
2017-11-01T19:27:33.162Z,55.86
2017-11-01T19:29:15.194Z,55.87
2017-11-01T19:30:56.197Z,55.86
2017-11-01T19:32:41.737Z,55.86
2017-11-01T19:34:21.431Z,55.88
2017-11-01T19:36:03.460Z,55.88
2017-11-01T19:37:49.363Z,55.86
2017-11-01T19:39:33.423Z,55.87
2017-11-01T19:41:17.510Z,55.86
2017-11-01T19:42:57.006Z,55.88
2017-11-01T19:44:38.648Z,55.89
2017-11-01T19:46:23.815Z,55.89
2017-11-01T19:48:05.390Z,55.91
2017-11-01T19:49:51.097Z,55.92
2017-11-01T19:51:33.109Z,55.93
2017-11-01T19:53:19.596Z,55.93
2017-11-01T19:55:03.525Z,55.95
2017-11-01T19:56:47.438Z,55.96
2017-11-01T19:58:41.357Z,55.98
2017-11-01T20:00:30.891Z,55.97
2017-11-01T20:02:10.600Z,55.96
2017-11-01T20:03:57.232Z,55.94
2017-11-01T20:05:39.027Z,55.93
2017-11-01T20:07:19.621Z,55.92
2017-11-01T20:09:02.030Z,55.94
2017-11-01T20:10:47.042Z,55.94
2017-11-01T20:14:20.252Z,55.94
2017-11-01T20:16:07.976Z,55.93
2017-11-01T20:18:07.959Z,55.94
2017-11-01T20:19:50.083Z,55.96
2017-11-01T20:21:32.224Z,55.95
2017-11-01T20:24:55.157Z,55.94
2017-11-01T20:26:33.246Z,55.93
2017-11-01T20:28:12.683Z,55.91
2017-11-01T20:29:53.408Z,55.86
2017-11-01T20:31:33.644Z,55.82
2017-11-01T20:33:12.721Z,55.80
2017-11-01T20:34:53.081Z,55.76
2017-11-01T20:36:33.675Z,55.75
2017-11-01T20:38:13.077Z,55.73
2017-11-01T20:39:52.894Z,55.71
2017-11-01T20:43:15.292Z,55.66
2017-11-01T20:45:06.109Z,55.63
2017-11-01T20:46:53.211Z,55.58
2017-11-01T20:48:40.706Z,55.56
2017-11-01T20:50:20.183Z,55.53
2017-11-01T20:52:02.097Z,55.50
2017-11-01T20:53:42.100Z,55.49
2017-11-01T20:55:23.520Z,55.48
2017-11-01T20:57:04.163Z,55.47
2017-11-01T20:58:44.030Z,55.45
2017-11-01T21:00:24.357Z,55.45
2017-11-01T21:02:03.167Z,55.45
2017-11-01T21:03:42.537Z,55.44
2017-11-01T21:05:21.562Z,55.44
2017-11-01T21:07:00.658Z,55.44
2017-11-01T21:08:40.764Z,55.44
2017-11-01T21:10:22.075Z,55.44
2017-11-01T21:12:03.318Z,55.44
2017-11-01T21:13:42.340Z,55.44
2017-11-01T21:15:23.325Z,55.44
2017-11-01T21:17:01.979Z,55.42